Time,TemperatureF,DewpointF,PressureIn,WindDirection,WindDirectionDegrees,WindSpeedMPH,WindSpeedGustMPH,Humidity,HourlyPrecipIn,Conditions,Clouds,dailyrainin,SoftwareType,DateUTC
2013-03-20 00:00:00,37.5,21.0,30.06,NW,316,1.0,1.0,51,0.00,,,0.00,Wunderground v.1.15,2013-03-20 04:00:00,
2013-03-20 00:01:00,37.6,21.5,30.06,NW,316,1.0,1.0,52,0.00,,,0.00,Wunderground v.1.15,2013-03-20 04:01:00,
2013-03-20 00:02:00,37.6,22.9,30.06,NW,316,1.0,1.0,55,0.00,,,0.00,Wunderground v.1.15,2013-03-20 04:02:00,
2013-03-20 00:06:00,37.7,21.6,30.06,NW,317,0.0,1.0,52,0.00,,,0.00,Wunderground v.1.15,2013-03-20 04:06:00,
2013-03-20 00:12:00,37.5,19.6,30.05,NW,317,0.0,0.0,48,0.00,,,0.00,Wunderground v.1.15,2013-03-20 04:12:00,
2013-03-20 00:17:00,37.4,21.4,30.05,NW,316,0.0,3.0,52,0.00,,,0.00,Wunderground v.1.15,2013-03-20 04:17:00,
2013-03-20 00:23:00,37.5,20.1,30.05,NW,315,1.0,2.0,49,0.00,,,0.00,Wunderground v.1.15,2013-03-20 04:23:00,
2013-03-20 00:29:00,37.3,21.3,30.05,NW,320,1.0,3.0,52,0.00,,,0.00,Wunderground v.1.15,2013-03-20 04:29:00,
2013-03-20 00:34:00,37.2,19.8,30.05,WNW,302,1.0,3.0,49,0.00,,,0.00,Wunderground v.1.15,2013-03-20 04:34:00,
2013-03-20 00:39:00,37.7,18.8,30.05,NW,321,1.0,3.0,46,0.00,,,0.00,Wunderground v.1.15,2013-03-20 04:39:00,
2013-03-20 00:45:00,38.0,18.0,30.04,NW,323,1.0,3.0,44,0.00,,,0.00,Wunderground v.1.15,2013-03-20 04:45:00,
2013-03-20 00:51:00,38.5,19.0,30.04,NW,326,1.0,1.0,45,0.00,,,0.00,Wunderground v.1.15,2013-03-20 04:51:00,
2013-03-20 00:56:00,38.9,16.0,30.04,NNW,335,1.0,3.0,39,0.00,,,0.00,Wunderground v.1.15,2013-03-20 04:56:00,
2013-03-20 01:01:00,39.2,15.7,30.04,NNW,337,1.0,1.0,38,0.00,,,0.00,Wunderground v.1.15,2013-03-20 05:01:00,
2013-03-20 01:07:00,39.9,13.8,30.03,WNW,303,1.0,6.0,34,0.00,,,0.00,Wunderground v.1.15,2013-03-20 05:07:00,
2013-03-20 01:13:00,40.3,13.4,30.03,SSW,207,1.0,2.0,33,0.00,,,0.00,Wunderground v.1.15,2013-03-20 05:13:00,
2013-03-20 01:19:00,40.7,14.5,30.02,SSW,211,1.0,2.0,34,0.00,,,0.00,Wunderground v.1.15,2013-03-20 05:19:00,
2013-03-20 01:25:00,40.6,14.4,30.02,South,180,1.0,2.0,34,0.00,,,0.00,Wunderground v.1.15,2013-03-20 05:25:00,
2013-03-20 01:31:00,40.6,14.4,30.02,NNW,340,1.0,2.0,34,0.00,,,0.00,Wunderground v.1.15,2013-03-20 05:31:00,
2013-03-20 01:36:00,40.5,13.6,30.02,WNW,290,1.0,2.0,33,0.00,,,0.00,Wunderground v.1.15,2013-03-20 05:36:00,
2013-03-20 01:42:00,40.2,14.7,30.02,WNW,290,0.0,0.0,35,0.00,,,0.00,Wunderground v.1.15,2013-03-20 05:42:00,
2013-03-20 01:51:00,39.3,17.0,30.02,SW,215,0.0,0.0,40,0.00,,,0.00,Wunderground v.1.15,2013-03-20 05:51:00,
2013-03-20 01:56:00,39.3,14.5,30.02,WSW,257,1.0,4.0,36,0.00,,,0.00,Wunderground v.1.15,2013-03-20 05:56:00,
2013-03-20 02:01:00,39.5,13.4,30.02,West,269,0.0,2.0,34,0.00,,,0.00,Wunderground v.1.15,2013-03-20 06:01:00,
2013-03-20 02:06:00,39.6,13.5,30.02,NW,315,1.0,2.0,34,0.00,,,0.00,Wunderground v.1.15,2013-03-20 06:06:00,
2013-03-20 02:11:00,39.9,13.1,30.02,NW,305,1.0,1.0,33,0.00,,,0.00,Wunderground v.1.15,2013-03-20 06:11:00,
2013-03-20 02:17:00,40.1,12.6,30.01,NNE,23,1.0,6.0,32,0.00,,,0.00,Wunderground v.1.15,2013-03-20 06:17:00,
2013-03-20 02:22:00,40.4,12.1,30.02,West,276,2.0,3.0,31,0.00,,,0.00,Wunderground v.1.15,2013-03-20 06:22:00,
2013-03-20 02:28:00,40.8,12.5,30.02,NW,306,3.0,9.0,31,0.00,,,0.00,Wunderground v.1.15,2013-03-20 06:28:00,
2013-03-20 02:33:00,40.8,12.5,30.02,NE,41,2.0,2.0,31,0.00,,,0.00,Wunderground v.1.15,2013-03-20 06:33:00,
2013-03-20 02:39:00,40.9,11.8,30.02,East,100,1.0,3.0,30,0.00,,,0.00,Wunderground v.1.15,2013-03-20 06:39:00,
2013-03-20 02:45:00,40.9,11.8,30.02,NW,309,1.0,4.0,30,0.00,,,0.00,Wunderground v.1.15,2013-03-20 06:45:00,
2013-03-20 02:51:00,41.0,11.9,30.02,West,269,2.0,2.0,30,0.00,,,0.00,Wunderground v.1.15,2013-03-20 06:51:00,
2013-03-20 02:56:00,41.0,13.4,30.02,NW,317,3.0,5.0,32,0.00,,,0.00,Wunderground v.1.15,2013-03-20 06:56:00,
2013-03-20 03:02:00,40.8,14.6,30.02,NW,319,1.0,2.0,34,0.00,,,0.00,Wunderground v.1.15,2013-03-20 07:02:00,
2013-03-20 03:07:00,40.8,13.2,30.02,NW,309,1.0,4.0,32,0.00,,,0.00,Wunderground v.1.15,2013-03-20 07:07:00,
2013-03-20 03:13:00,40.7,13.1,30.02,NNW,342,1.0,5.0,32,0.00,,,0.00,Wunderground v.1.15,2013-03-20 07:13:00,
2013-03-20 03:18:00,40.8,12.5,30.02,WNW,302,1.0,5.0,31,0.00,,,0.00,Wunderground v.1.15,2013-03-20 07:18:00,
2013-03-20 03:24:00,40.7,12.4,30.02,North,355,1.0,4.0,31,0.00,,,0.00,Wunderground v.1.15,2013-03-20 07:24:00,
2013-03-20 03:29:00,40.7,12.4,30.02,NNW,345,1.0,4.0,31,0.00,,,0.00,Wunderground v.1.15,2013-03-20 07:29:00,
2013-03-20 03:35:00,40.7,13.1,30.02,NNW,329,1.0,7.0,32,0.00,,,0.00,Wunderground v.1.15,2013-03-20 07:35:00,
2013-03-20 03:40:00,40.7,11.6,30.01,NNW,334,2.0,5.0,30,0.00,,,0.00,Wunderground v.1.15,2013-03-20 07:40:00,
2013-03-20 03:51:00,40.6,11.5,30.01,NNW,329,1.0,3.0,30,0.00,,,0.00,Wunderground v.1.15,2013-03-20 07:51:00,
2013-03-20 03:56:00,40.6,11.5,30.00,NW,304,1.0,7.0,30,0.00,,,0.00,Wunderground v.1.15,2013-03-20 07:56:00,
2013-03-20 04:01:00,40.5,13.6,30.00,NNE,16,1.0,1.0,33,0.00,,,0.00,Wunderground v.1.15,2013-03-20 08:01:00,
2013-03-20 04:06:00,40.4,12.1,30.00,NNW,336,1.0,5.0,31,0.00,,,0.00,Wunderground v.1.15,2013-03-20 08:06:00,
2013-03-20 04:12:00,40.3,12.0,30.00,NW,324,1.0,5.0,31,0.00,,,0.00,Wunderground v.1.15,2013-03-20 08:12:00,
2013-03-20 04:17:00,40.4,12.1,30.00,NNW,335,1.0,5.0,31,0.00,,,0.00,Wunderground v.1.15,2013-03-20 08:17:00,
2013-03-20 04:22:00,40.4,12.1,30.01,NNW,344,1.0,1.0,31,0.00,,,0.00,Wunderground v.1.15,2013-03-20 08:22:00,
2013-03-20 04:27:00,40.4,11.4,30.00,WNW,296,1.0,1.0,30,0.00,,,0.00,Wunderground v.1.15,2013-03-20 08:27:00,
2013-03-20 04:32:00,40.4,12.8,30.00,West,263,1.0,3.0,32,0.00,,,0.00,Wunderground v.1.15,2013-03-20 08:32:00,
2013-03-20 04:38:00,40.3,12.0,30.00,NW,326,1.0,3.0,31,0.00,,,0.00,Wunderground v.1.15,2013-03-20 08:38:00,
2013-03-20 04:43:00,40.3,11.3,30.00,NNW,338,1.0,3.0,30,0.00,,,0.00,Wunderground v.1.15,2013-03-20 08:43:00,
2013-03-20 04:51:00,40.2,14.0,30.01,NW,306,2.0,2.0,34,0.00,,,0.00,Wunderground v.1.15,2013-03-20 08:51:00,
2013-03-20 04:56:00,40.1,11.8,30.01,NW,306,1.0,6.0,31,0.00,,,0.00,Wunderground v.1.15,2013-03-20 08:56:00,
2013-03-20 05:01:00,40.1,13.3,30.01,West,281,1.0,2.0,33,0.00,,,0.00,Wunderground v.1.15,2013-03-20 09:01:00,
2013-03-20 05:07:00,40.1,11.8,30.00,West,265,1.0,3.0,31,0.00,,,0.00,Wunderground v.1.15,2013-03-20 09:07:00,
2013-03-20 05:12:00,40.0,11.0,30.00,SW,219,1.0,4.0,30,0.00,,,0.00,Wunderground v.1.15,2013-03-20 09:12:00,
2013-03-20 05:17:00,40.0,11.0,30.00,NNW,346,1.0,4.0,30,0.00,,,0.00,Wunderground v.1.15,2013-03-20 09:17:00,
2013-03-20 05:22:00,40.0,11.8,30.00,NW,314,1.0,1.0,31,0.00,,,0.00,Wunderground v.1.15,2013-03-20 09:22:00,
2013-03-20 05:27:00,39.9,13.1,30.00,ENE,74,1.0,3.0,33,0.00,,,0.00,Wunderground v.1.15,2013-03-20 09:27:00,
2013-03-20 05:32:00,39.8,10.8,30.00,WSW,257,1.0,1.0,30,0.00,,,0.00,Wunderground v.1.15,2013-03-20 09:32:00,
2013-03-20 05:37:00,39.7,11.5,30.00,WSW,240,1.0,2.0,31,0.00,,,0.00,Wunderground v.1.15,2013-03-20 09:37:00,
2013-03-20 05:43:00,39.5,10.6,30.01,WSW,238,1.0,1.0,30,0.00,,,0.00,Wunderground v.1.15,2013-03-20 09:43:00,
2013-03-20 05:50:00,39.2,12.5,30.01,West,269,1.0,1.0,33,0.00,,,0.00,Wunderground v.1.15,2013-03-20 09:50:00,
2013-03-20 05:56:00,38.9,10.1,30.01,SW,225,1.0,3.0,30,0.00,,,0.00,Wunderground v.1.15,2013-03-20 09:56:00,
2013-03-20 06:02:00,38.9,10.1,30.02,SE,130,2.0,2.0,30,0.00,,,0.00,Wunderground v.1.15,2013-03-20 10:02:00,
2013-03-20 06:08:00,38.9,10.8,30.02,SW,221,1.0,2.0,31,0.00,,,0.00,Wunderground v.1.15,2013-03-20 10:08:00,
2013-03-20 06:13:00,38.8,10.7,30.02,NNW,333,1.0,1.0,31,0.00,,,0.00,Wunderground v.1.15,2013-03-20 10:13:00,
2013-03-20 06:18:00,38.7,9.9,30.02,NW,305,1.0,1.0,30,0.00,,,0.00,Wunderground v.1.15,2013-03-20 10:18:00,
2013-03-20 06:24:00,38.5,10.4,30.02,NNW,338,0.0,1.0,31,0.00,,,0.00,Wunderground v.1.15,2013-03-20 10:24:00,
2013-03-20 06:30:00,38.3,9.5,30.02,WNW,288,0.0,3.0,30,0.00,,,0.00,Wunderground v.1.15,2013-03-20 10:30:00,
2013-03-20 06:36:00,38.4,9.6,30.03,WSW,255,1.0,3.0,30,0.00,,,0.00,Wunderground v.1.15,2013-03-20 10:36:00,
2013-03-20 06:42:00,38.3,14.9,30.04,WSW,252,1.0,1.0,38,0.00,,,0.00,Wunderground v.1.15,2013-03-20 10:42:00,
2013-03-20 06:51:00,38.3,11.7,30.04,WSW,252,1.0,1.0,33,0.00,,,0.00,Wunderground v.1.15,2013-03-20 10:51:00,
2013-03-20 06:56:00,38.2,13.6,30.04,WSW,252,0.0,4.0,36,0.00,,,0.00,Wunderground v.1.15,2013-03-20 10:56:00,
2013-03-20 07:01:00,38.0,10.0,30.05,WSW,252,0.0,0.0,31,0.00,,,0.00,Wunderground v.1.15,2013-03-20 11:01:00,
2013-03-20 07:07:00,38.1,11.5,30.04,WSW,252,0.0,0.0,33,0.00,,,0.00,Wunderground v.1.15,2013-03-20 11:07:00,
2013-03-20 07:13:00,38.0,8.5,30.05,WSW,252,0.0,0.0,29,0.00,,,0.00,Wunderground v.1.15,2013-03-20 11:13:00,
2013-03-20 07:18:00,38.0,13.4,30.06,WSW,252,0.0,0.0,36,0.00,,,0.00,Wunderground v.1.15,2013-03-20 11:18:00,
2013-03-20 07:23:00,37.7,12.5,30.06,WSW,252,0.0,0.0,35,0.00,,,0.00,Wunderground v.1.15,2013-03-20 11:23:00,
2013-03-20 07:29:00,37.1,18.2,30.07,NW,304,0.0,2.0,46,0.00,,,0.00,Wunderground v.1.15,2013-03-20 11:29:00,
2013-03-20 07:34:00,36.5,18.2,30.07,NW,313,0.0,3.0,47,0.00,,,0.00,Wunderground v.1.15,2013-03-20 11:34:00,
2013-03-20 07:40:00,36.3,11.2,30.07,NW,313,0.0,0.0,35,0.00,,,0.00,Wunderground v.1.15,2013-03-20 11:40:00,
2013-03-20 07:51:00,36.9,14.2,30.08,WNW,294,1.0,1.0,39,0.00,,,0.00,Wunderground v.1.15,2013-03-20 11:51:00,
2013-03-20 07:56:00,37.1,10.6,30.08,North,350,1.0,2.0,33,0.00,,,0.00,Wunderground v.1.15,2013-03-20 11:56:00,
2013-03-20 08:01:00,37.3,10.8,30.08,SW,229,1.0,1.0,33,0.00,,,0.00,Wunderground v.1.15,2013-03-20 12:01:00,
2013-03-20 08:06:00,37.4,8.7,30.08,NNW,330,1.0,2.0,30,0.00,,,0.00,Wunderground v.1.15,2013-03-20 12:06:00,
2013-03-20 08:11:00,37.5,8.8,30.09,NW,317,0.0,0.0,30,0.00,,,0.00,Wunderground v.1.15,2013-03-20 12:11:00,
2013-03-20 08:17:00,37.5,10.3,30.09,NNW,340,1.0,1.0,32,0.00,,,0.00,Wunderground v.1.15,2013-03-20 12:17:00,
2013-03-20 08:23:00,37.6,8.2,30.08,WNW,295,1.0,4.0,29,0.00,,,0.00,Wunderground v.1.15,2013-03-20 12:23:00,
2013-03-20 08:28:00,37.7,8.2,30.08,NNW,331,1.0,4.0,29,0.00,,,0.00,Wunderground v.1.15,2013-03-20 12:28:00,
2013-03-20 08:33:00,37.8,8.3,30.08,WNW,301,0.0,1.0,29,0.00,,,0.00,Wunderground v.1.15,2013-03-20 12:33:00,
2013-03-20 08:38:00,37.8,6.8,30.08,WNW,301,0.0,1.0,27,0.00,,,0.00,Wunderground v.1.15,2013-03-20 12:38:00,
2013-03-20 08:44:00,37.9,8.4,30.09,NW,321,0.0,3.0,29,0.00,,,0.00,Wunderground v.1.15,2013-03-20 12:44:00,
2013-03-20 08:51:00,38.0,7.7,30.09,WSW,249,1.0,4.0,28,0.00,,,0.00,Wunderground v.1.15,2013-03-20 12:51:00,
2013-03-20 08:56:00,38.2,8.7,30.08,NNW,328,1.0,4.0,29,0.00,,,0.00,Wunderground v.1.15,2013-03-20 12:56:00,
2013-03-20 09:01:00,38.2,7.1,30.09,NNW,348,0.0,1.0,27,0.00,,,0.00,Wunderground v.1.15,2013-03-20 13:01:00,
2013-03-20 09:06:00,38.2,5.4,30.09,NW,307,0.0,2.0,25,0.00,,,0.00,Wunderground v.1.15,2013-03-20 13:06:00,
2013-03-20 09:11:00,38.3,9.5,30.09,NW,307,0.0,0.0,30,0.00,,,0.00,Wunderground v.1.15,2013-03-20 13:11:00,
2013-03-20 09:17:00,38.3,9.5,30.09,WNW,302,0.0,1.0,30,0.00,,,0.00,Wunderground v.1.15,2013-03-20 13:17:00,
2013-03-20 09:23:00,38.3,7.2,30.09,WNW,302,0.0,2.0,27,0.00,,,0.00,Wunderground v.1.15,2013-03-20 13:23:00,
2013-03-20 09:28:00,38.4,5.6,30.09,NW,313,0.0,2.0,25,0.00,,,0.00,Wunderground v.1.15,2013-03-20 13:28:00,
2013-03-20 09:34:00,38.6,7.4,30.09,West,269,1.0,1.0,27,0.00,,,0.00,Wunderground v.1.15,2013-03-20 13:34:00,
2013-03-20 09:39:00,38.8,7.6,30.10,NNW,333,1.0,2.0,27,0.00,,,0.00,Wunderground v.1.15,2013-03-20 13:39:00,
2013-03-20 09:44:00,39.0,7.0,30.10,NW,326,1.0,2.0,26,0.00,,,0.00,Wunderground v.1.15,2013-03-20 13:44:00,
2013-03-20 09:51:00,39.2,6.3,30.10,NW,317,1.0,2.0,25,0.00,,,0.00,Wunderground v.1.15,2013-03-20 13:51:00,
2013-03-20 09:56:00,39.5,4.7,30.10,NW,315,2.0,3.0,23,0.00,,,0.00,Wunderground v.1.15,2013-03-20 13:56:00,
2013-03-20 10:01:00,39.6,7.5,30.10,NNW,336,1.0,2.0,26,0.00,,,0.00,Wunderground v.1.15,2013-03-20 14:01:00,
2013-03-20 10:06:00,39.8,8.5,30.11,NNW,335,0.0,2.0,27,0.00,,,0.00,Wunderground v.1.15,2013-03-20 14:06:00,
2013-03-20 10:11:00,40.0,6.9,30.12,NNW,329,0.0,1.0,25,0.00,,,0.00,Wunderground v.1.15,2013-03-20 14:11:00,
2013-03-20 10:17:00,39.9,6.9,30.11,North,351,1.0,3.0,25,0.00,,,0.00,Wunderground v.1.15,2013-03-20 14:17:00,
2013-03-20 10:22:00,39.8,4.9,30.11,NW,306,1.0,1.0,23,0.00,,,0.00,Wunderground v.1.15,2013-03-20 14:22:00,
2013-03-20 10:28:00,39.8,6.8,30.11,NW,306,0.0,1.0,25,0.00,,,0.00,Wunderground v.1.15,2013-03-20 14:28:00,
2013-03-20 10:33:00,40.0,6.9,30.11,NW,306,0.0,1.0,25,0.00,,,0.00,Wunderground v.1.15,2013-03-20 14:33:00,
2013-03-20 10:38:00,40.1,7.9,30.12,NW,306,0.0,1.0,26,0.00,,,0.00,Wunderground v.1.15,2013-03-20 14:38:00,
2013-03-20 10:44:00,40.2,7.1,30.12,NW,306,0.0,0.0,25,0.00,,,0.00,Wunderground v.1.15,2013-03-20 14:44:00,
2013-03-20 10:51:00,40.4,9.0,30.12,NW,314,0.0,0.0,27,0.00,,,0.00,Wunderground v.1.15,2013-03-20 14:51:00,
2013-03-20 10:56:00,40.4,8.2,30.12,NNW,327,1.0,7.0,26,0.00,,,0.00,Wunderground v.1.15,2013-03-20 14:56:00,
2013-03-20 11:01:00,40.4,8.2,30.13,NNW,327,0.0,0.0,26,0.00,,,0.00,Wunderground v.1.15,2013-03-20 15:01:00,
2013-03-20 11:06:00,40.5,7.4,30.13,NNW,327,0.0,0.0,25,0.00,,,0.00,Wunderground v.1.15,2013-03-20 15:06:00,
2013-03-20 11:12:00,40.7,8.4,30.12,NNW,327,0.0,0.0,26,0.00,,,0.00,Wunderground v.1.15,2013-03-20 15:12:00,
2013-03-20 11:17:00,40.9,7.7,30.12,NNW,340,0.0,2.0,25,0.00,,,0.00,Wunderground v.1.15,2013-03-20 15:17:00,
2013-03-20 11:22:00,41.0,8.7,30.11,NNW,332,0.0,0.0,26,0.00,,,0.00,Wunderground v.1.15,2013-03-20 15:22:00,
2013-03-20 11:27:00,41.3,10.6,30.12,NNW,331,0.0,0.0,28,0.00,,,0.00,Wunderground v.1.15,2013-03-20 15:27:00,
2013-03-20 11:33:00,41.5,8.2,30.12,NNW,331,0.0,0.0,25,0.00,,,0.00,Wunderground v.1.15,2013-03-20 15:33:00,
2013-03-20 11:38:00,41.8,5.7,30.11,NNW,332,0.0,1.0,22,0.00,,,0.00,Wunderground v.1.15,2013-03-20 15:38:00,
2013-03-20 11:44:00,42.1,7.8,30.11,NNW,331,0.0,0.0,24,0.00,,,0.00,Wunderground v.1.15,2013-03-20 15:44:00,
2013-03-20 11:51:00,42.2,5.0,30.11,NNW,331,0.0,1.0,21,0.00,,,0.00,Wunderground v.1.15,2013-03-20 15:51:00,
2013-03-20 11:56:00,42.2,7.0,30.10,NNW,331,0.0,2.0,23,0.00,,,0.00,Wunderground v.1.15,2013-03-20 15:56:00,
2013-03-20 12:01:00,42.5,5.2,30.09,NNW,331,0.0,0.0,21,0.00,,,0.00,Wunderground v.1.15,2013-03-20 16:01:00,
2013-03-20 12:07:00,42.8,5.5,30.09,ESE,121,0.0,2.0,21,0.00,,,0.00,Wunderground v.1.15,2013-03-20 16:07:00,
2013-03-20 12:12:00,42.8,6.5,30.09,East,97,1.0,2.0,22,0.00,,,0.00,Wunderground v.1.15,2013-03-20 16:12:00,
2013-03-20 12:17:00,43.2,6.8,30.09,SSE,148,1.0,3.0,22,0.00,,,0.00,Wunderground v.1.15,2013-03-20 16:17:00,
2013-03-20 12:22:00,43.3,7.9,30.08,East,87,1.0,2.0,23,0.00,,,0.00,Wunderground v.1.15,2013-03-20 16:22:00,
2013-03-20 12:28:00,43.8,9.3,30.08,SE,132,1.0,2.0,24,0.00,,,0.00,Wunderground v.1.15,2013-03-20 16:28:00,
2013-03-20 12:34:00,44.3,8.8,30.07,South,169,1.0,3.0,23,0.00,,,0.00,Wunderground v.1.15,2013-03-20 16:34:00,
2013-03-20 12:39:00,44.8,10.1,30.07,NW,313,1.0,3.0,24,0.00,,,0.00,Wunderground v.1.15,2013-03-20 16:39:00,
2013-03-20 12:45:00,45.1,9.4,30.07,ESE,123,1.0,2.0,23,0.00,,,0.00,Wunderground v.1.15,2013-03-20 16:45:00,
2013-03-20 12:51:00,45.0,10.3,30.07,SE,142,1.0,1.0,24,0.00,,,0.00,Wunderground v.1.15,2013-03-20 16:51:00,
2013-03-20 12:56:00,45.3,11.5,30.06,SSW,192,2.0,5.0,25,0.00,,,0.00,Wunderground v.1.15,2013-03-20 16:56:00,
2013-03-20 13:02:00,45.8,13.7,30.06,SW,232,2.0,2.0,27,0.00,,,0.00,Wunderground v.1.15,2013-03-20 17:02:00,
2013-03-20 13:08:00,46.3,11.4,30.05,East,84,2.0,4.0,24,0.00,,,0.00,Wunderground v.1.15,2013-03-20 17:08:00,
2013-03-20 13:13:00,46.0,11.2,30.05,NNE,13,3.0,4.0,24,0.00,,,0.00,Wunderground v.1.15,2013-03-20 17:13:00,
2013-03-20 13:19:00,46.1,11.2,30.04,SW,217,2.0,4.0,24,0.00,,,0.00,Wunderground v.1.15,2013-03-20 17:19:00,
2013-03-20 13:24:00,46.4,11.5,30.03,East,80,2.0,10.0,24,0.00,,,0.00,Wunderground v.1.15,2013-03-20 17:24:00,
2013-03-20 13:29:00,46.9,11.9,30.03,NNE,33,3.0,10.0,24,0.00,,,0.00,Wunderground v.1.15,2013-03-20 17:29:00,
2013-03-20 13:34:00,47.6,12.5,30.02,East,82,3.0,6.0,24,0.00,,,0.00,Wunderground v.1.15,2013-03-20 17:34:00,
2013-03-20 13:40:00,48.2,12.1,30.02,SE,130,2.0,3.0,23,0.00,,,0.00,Wunderground v.1.15,2013-03-20 17:40:00,
2013-03-20 13:51:00,47.9,11.8,30.00,SSW,213,2.0,3.0,23,0.00,,,0.00,Wunderground v.1.15,2013-03-20 17:51:00,
2013-03-20 13:56:00,48.4,11.2,29.99,East,89,3.0,8.0,22,0.00,,,0.00,Wunderground v.1.15,2013-03-20 17:56:00,
2013-03-20 14:01:00,48.2,11.1,29.99,ENE,71,4.0,4.0,22,0.00,,,0.00,Wunderground v.1.15,2013-03-20 18:01:00,
2013-03-20 14:06:00,48.6,10.4,29.99,ESE,103,4.0,5.0,21,0.00,,,0.00,Wunderground v.1.15,2013-03-20 18:06:00,
2013-03-20 14:12:00,49.1,10.8,29.98,ENE,65,5.0,8.0,21,0.00,,,0.00,Wunderground v.1.15,2013-03-20 18:12:00,
2013-03-20 14:17:00,49.5,10.0,29.97,North,5,4.0,8.0,20,0.00,,,0.00,Wunderground v.1.15,2013-03-20 18:17:00,
2013-03-20 14:22:00,50.0,11.5,29.96,East,88,4.0,5.0,21,0.00,,,0.00,Wunderground v.1.15,2013-03-20 18:22:00,
2013-03-20 14:28:00,50.9,11.2,29.96,ENE,66,4.0,7.0,20,0.00,,,0.00,Wunderground v.1.15,2013-03-20 18:28:00,
2013-03-20 14:34:00,51.7,9.5,29.94,NNE,30,3.0,3.0,18,0.00,,,0.00,Wunderground v.1.15,2013-03-20 18:34:00,
2013-03-20 14:39:00,51.7,9.5,29.95,ESE,114,3.0,5.0,18,0.00,,,0.00,Wunderground v.1.15,2013-03-20 18:39:00,
2013-03-20 14:45:00,51.5,9.3,29.94,ENE,69,4.0,11.0,18,0.00,,,0.00,Wunderground v.1.15,2013-03-20 18:45:00,
2013-03-20 14:51:00,51.5,11.7,29.93,NE,44,3.0,3.0,20,0.00,,,0.00,Wunderground v.1.15,2013-03-20 18:51:00,
2013-03-20 14:56:00,52.1,11.0,29.92,SE,125,3.0,8.0,19,0.00,,,0.00,Wunderground v.1.15,2013-03-20 18:56:00,
2013-03-20 15:02:00,52.8,10.4,29.93,NW,304,3.0,12.0,18,0.00,,,0.00,Wunderground v.1.15,2013-03-20 19:02:00,
2013-03-20 15:07:00,53.0,10.6,29.92,South,175,3.0,12.0,18,0.00,,,0.00,Wunderground v.1.15,2013-03-20 19:07:00,
2013-03-20 15:13:00,52.8,7.8,29.92,NNW,333,2.0,5.0,16,0.00,,,0.00,Wunderground v.1.15,2013-03-20 19:13:00,
2013-03-20 15:18:00,52.9,9.2,29.92,SW,215,3.0,10.0,17,0.00,,,0.00,Wunderground v.1.15,2013-03-20 19:18:00,
2013-03-20 15:23:00,52.7,6.3,29.91,NW,324,4.0,9.0,15,0.00,,,0.00,Wunderground v.1.15,2013-03-20 19:23:00,
2013-03-20 15:29:00,52.6,8.9,29.90,West,261,4.0,9.0,17,0.00,,,0.00,Wunderground v.1.15,2013-03-20 19:29:00,
2013-03-20 15:34:00,52.0,9.7,29.89,NW,317,4.0,9.0,18,0.00,,,0.00,Wunderground v.1.15,2013-03-20 19:34:00,
2013-03-20 15:40:00,52.2,8.6,29.89,WNW,294,4.0,4.0,17,0.00,,,0.00,Wunderground v.1.15,2013-03-20 19:40:00,
2013-03-20 15:45:00,52.8,10.4,29.89,NW,318,3.0,8.0,18,0.00,,,0.00,Wunderground v.1.15,2013-03-20 19:45:00,
2013-03-20 15:51:00,53.2,11.9,29.89,WNW,294,2.0,2.0,19,0.00,,,0.00,Wunderground v.1.15,2013-03-20 19:51:00,
2013-03-20 15:56:00,53.2,8.1,29.88,North,5,2.0,6.0,16,0.00,,,0.00,Wunderground v.1.15,2013-03-20 19:56:00,
2013-03-20 16:01:00,53.3,8.2,29.88,NNW,344,3.0,6.0,16,0.00,,,0.00,Wunderground v.1.15,2013-03-20 20:01:00,
2013-03-20 16:07:00,53.0,10.6,29.88,SW,221,3.0,6.0,18,0.00,,,0.00,Wunderground v.1.15,2013-03-20 20:07:00,
2013-03-20 16:12:00,53.2,10.7,29.87,North,5,3.0,3.0,18,0.00,,,0.00,Wunderground v.1.15,2013-03-20 20:12:00,
2013-03-20 16:18:00,53.0,10.6,29.88,NNW,343,3.0,7.0,18,0.00,,,0.00,Wunderground v.1.15,2013-03-20 20:18:00,
2013-03-20 16:23:00,53.1,9.4,29.87,NNW,338,3.0,7.0,17,0.00,,,0.00,Wunderground v.1.15,2013-03-20 20:23:00,
2013-03-20 16:28:00,53.3,9.5,29.87,North,355,3.0,7.0,17,0.00,,,0.00,Wunderground v.1.15,2013-03-20 20:28:00,
2013-03-20 16:34:00,53.4,9.6,29.87,NNE,13,2.0,4.0,17,0.00,,,0.00,Wunderground v.1.15,2013-03-20 20:34:00,
2013-03-20 16:40:00,53.8,11.2,29.87,ENE,59,1.0,1.0,18,0.00,,,0.00,Wunderground v.1.15,2013-03-20 20:40:00,
2013-03-20 16:45:00,53.8,11.2,29.86,North,360,1.0,3.0,18,0.00,,,0.00,Wunderground v.1.15,2013-03-20 20:45:00,
2013-03-20 16:51:00,53.5,9.7,29.85,West,270,1.0,2.0,17,0.00,,,0.00,Wunderground v.1.15,2013-03-20 20:51:00,
2013-03-20 16:56:00,52.8,10.4,29.85,NNE,30,2.0,10.0,18,0.00,,,0.00,Wunderground v.1.15,2013-03-20 20:56:00,
2013-03-20 17:02:00,52.4,10.1,29.84,West,281,3.0,3.0,18,0.00,,,0.00,Wunderground v.1.15,2013-03-20 21:02:00,
2013-03-20 17:07:00,52.7,10.3,29.84,NE,56,2.0,3.0,18,0.00,,,0.00,Wunderground v.1.15,2013-03-20 21:07:00,
2013-03-20 17:12:00,52.4,10.1,29.84,NNW,331,2.0,5.0,18,0.00,,,0.00,Wunderground v.1.15,2013-03-20 21:12:00,
2013-03-20 17:18:00,52.2,11.1,29.84,East,88,3.0,5.0,19,0.00,,,0.00,Wunderground v.1.15,2013-03-20 21:18:00,
2013-03-20 17:24:00,51.9,10.9,29.84,SW,227,2.0,3.0,19,0.00,,,0.00,Wunderground v.1.15,2013-03-20 21:24:00,
2013-03-20 17:29:00,51.9,10.9,29.84,ENE,60,1.0,3.0,19,0.00,,,0.00,Wunderground v.1.15,2013-03-20 21:29:00,
2013-03-20 17:35:00,51.9,13.1,29.84,North,5,2.0,5.0,21,0.00,,,0.00,Wunderground v.1.15,2013-03-20 21:35:00,
2013-03-20 17:40:00,51.5,10.5,29.84,NNE,22,2.0,4.0,19,0.00,,,0.00,Wunderground v.1.15,2013-03-20 21:40:00,
2013-03-20 17:45:00,51.0,11.3,29.84,NNW,342,2.0,4.0,20,0.00,,,0.00,Wunderground v.1.15,2013-03-20 21:45:00,
2013-03-20 17:51:00,51.2,12.5,29.85,West,281,2.0,2.0,21,0.00,,,0.00,Wunderground v.1.15,2013-03-20 21:51:00,
2013-03-20 17:56:00,50.8,9.9,29.85,NW,306,2.0,11.0,19,0.00,,,0.00,Wunderground v.1.15,2013-03-20 21:56:00,
2013-03-20 18:01:00,50.4,12.9,29.85,WNW,286,3.0,3.0,22,0.00,,,0.00,Wunderground v.1.15,2013-03-20 22:01:00,
2013-03-20 18:07:00,49.7,10.2,29.85,West,269,2.0,5.0,20,0.00,,,0.00,Wunderground v.1.15,2013-03-20 22:07:00,
2013-03-20 18:13:00,49.0,11.7,29.85,North,5,3.0,7.0,22,0.00,,,0.00,Wunderground v.1.15,2013-03-20 22:13:00,
2013-03-20 18:18:00,48.5,10.3,29.86,SE,145,3.0,8.0,21,0.00,,,0.00,Wunderground v.1.15,2013-03-20 22:18:00,
2013-03-20 18:24:00,48.3,10.1,29.85,NNW,342,4.0,5.0,21,0.00,,,0.00,Wunderground v.1.15,2013-03-20 22:24:00,
2013-03-20 18:30:00,48.1,11.0,29.86,NW,313,3.0,3.0,22,0.00,,,0.00,Wunderground v.1.15,2013-03-20 22:30:00,
2013-03-20 18:35:00,48.0,10.9,29.86,North,5,2.0,3.0,22,0.00,,,0.00,Wunderground v.1.15,2013-03-20 22:35:00,
2013-03-20 18:41:00,47.8,14.5,29.86,NE,40,1.0,2.0,26,0.00,,,0.00,Wunderground v.1.15,2013-03-20 22:41:00,
2013-03-20 18:50:00,47.4,12.4,29.86,SE,130,2.0,2.0,24,0.00,,,0.00,Wunderground v.1.15,2013-03-20 22:50:00,
2013-03-20 18:56:00,47.0,12.9,29.86,SE,134,3.0,11.0,25,0.00,,,0.00,Wunderground v.1.15,2013-03-20 22:56:00,
2013-03-20 19:02:00,46.8,13.7,29.86,WNW,284,2.0,3.0,26,0.00,,,0.00,Wunderground v.1.15,2013-03-20 23:02:00,
2013-03-20 19:08:00,46.5,14.3,29.86,WSW,248,1.0,3.0,27,0.00,,,0.00,Wunderground v.1.15,2013-03-20 23:08:00,
2013-03-20 19:14:00,46.3,12.3,29.86,ESE,103,1.0,2.0,25,0.00,,,0.00,Wunderground v.1.15,2013-03-20 23:14:00,
2013-03-20 19:20:00,46.0,14.7,29.86,NNE,30,1.0,1.0,28,0.00,,,0.00,Wunderground v.1.15,2013-03-20 23:20:00,
2013-03-20 19:25:00,45.8,14.5,29.86,NW,317,1.0,3.0,28,0.00,,,0.00,Wunderground v.1.15,2013-03-20 23:25:00,
2013-03-20 19:30:00,45.6,15.1,29.86,WSW,240,1.0,3.0,29,0.00,,,0.00,Wunderground v.1.15,2013-03-20 23:30:00,
2013-03-20 19:35:00,45.4,14.9,29.86,ESE,107,1.0,3.0,29,0.00,,,0.00,Wunderground v.1.15,2013-03-20 23:35:00,
2013-03-20 19:40:00,45.4,15.7,29.86,West,277,1.0,1.0,30,0.00,,,0.00,Wunderground v.1.15,2013-03-20 23:40:00,
2013-03-20 19:50:00,45.0,13.8,29.86,ENE,77,2.0,2.0,28,0.00,,,0.00,Wunderground v.1.15,2013-03-20 23:50:00,
2013-03-20 19:56:00,44.9,14.5,29.86,WSW,249,2.0,9.0,29,0.00,,,0.00,Wunderground v.1.15,2013-03-20 23:56:00,
2013-03-20 20:01:00,44.8,14.4,29.86,North,355,2.0,2.0,29,0.00,,,0.00,Wunderground v.1.15,2013-03-21 00:01:00,
2013-03-20 20:07:00,44.7,14.3,29.86,WSW,240,2.0,4.0,29,0.00,,,0.00,Wunderground v.1.15,2013-03-21 00:07:00,
2013-03-20 20:12:00,44.7,14.3,29.86,WSW,242,1.0,3.0,29,0.00,,,0.00,Wunderground v.1.15,2013-03-21 00:12:00,
2013-03-20 20:18:00,44.8,14.4,29.86,NW,306,1.0,6.0,29,0.00,,,0.00,Wunderground v.1.15,2013-03-21 00:18:00,
2013-03-20 20:23:00,44.7,14.3,29.86,NNW,331,2.0,2.0,29,0.00,,,0.00,Wunderground v.1.15,2013-03-21 00:23:00,
2013-03-20 20:28:00,44.6,16.5,29.86,NNW,331,1.0,2.0,32,0.00,,,0.00,Wunderground v.1.15,2013-03-21 00:28:00,
2013-03-20 20:34:00,44.3,15.5,29.85,NW,311,1.0,5.0,31,0.00,,,0.00,Wunderground v.1.15,2013-03-21 00:34:00,
2013-03-20 20:39:00,44.2,15.4,29.85,West,279,1.0,5.0,31,0.00,,,0.00,Wunderground v.1.15,2013-03-21 00:39:00,
2013-03-20 20:44:00,44.2,14.7,29.85,East,93,1.0,1.0,30,0.00,,,0.00,Wunderground v.1.15,2013-03-21 00:44:00,
2013-03-20 20:51:00,44.2,16.2,29.86,NNW,333,1.0,1.0,32,0.00,,,0.00,Wunderground v.1.15,2013-03-21 00:51:00,
2013-03-20 20:56:00,44.1,15.3,29.86,NW,307,1.0,7.0,31,0.00,,,0.00,Wunderground v.1.15,2013-03-21 00:56:00,
2013-03-20 21:01:00,43.9,15.2,29.86,NE,46,2.0,3.0,31,0.00,,,0.00,Wunderground v.1.15,2013-03-21 01:01:00,
2013-03-20 21:07:00,43.8,15.8,29.85,North,349,2.0,3.0,32,0.00,,,0.00,Wunderground v.1.15,2013-03-21 01:07:00,
2013-03-20 21:13:00,43.7,15.7,29.85,ESE,117,2.0,2.0,32,0.00,,,0.00,Wunderground v.1.15,2013-03-21 01:13:00,
2013-03-20 21:19:00,43.6,16.3,29.85,SE,136,1.0,3.0,33,0.00,,,0.00,Wunderground v.1.15,2013-03-21 01:19:00,
2013-03-20 21:25:00,43.5,16.3,29.85,SW,225,2.0,5.0,33,0.00,,,0.00,Wunderground v.1.15,2013-03-21 01:25:00,
2013-03-20 21:30:00,43.2,17.4,29.85,SW,216,1.0,2.0,35,0.00,,,0.00,Wunderground v.1.15,2013-03-21 01:30:00,
2013-03-20 21:35:00,43.1,17.3,29.86,NNW,335,1.0,5.0,35,0.00,,,0.00,Wunderground v.1.15,2013-03-21 01:35:00,
2013-03-20 21:41:00,43.2,18.6,29.86,SW,236,2.0,3.0,37,0.00,,,0.00,Wunderground v.1.15,2013-03-21 01:41:00,
2013-03-20 21:50:00,42.9,20.8,29.87,NW,320,3.0,3.0,41,0.00,,,0.00,Wunderground v.1.15,2013-03-21 01:50:00,
2013-03-20 21:56:00,42.5,21.5,29.87,SE,125,3.0,8.0,43,0.00,,,0.00,Wunderground v.1.15,2013-03-21 01:56:00,
2013-03-20 22:01:00,42.3,21.4,29.87,West,263,2.0,2.0,43,0.00,,,0.00,Wunderground v.1.15,2013-03-21 02:01:00,
2013-03-20 22:07:00,42.0,22.2,29.87,NNW,333,2.0,5.0,45,0.00,,,0.00,Wunderground v.1.15,2013-03-21 02:07:00,
2013-03-20 22:12:00,41.6,21.8,29.86,West,270,3.0,7.0,45,0.00,,,0.00,Wunderground v.1.15,2013-03-21 02:12:00,
2013-03-20 22:17:00,41.4,22.7,29.87,WSW,239,3.0,7.0,47,0.00,,,0.00,Wunderground v.1.15,2013-03-21 02:17:00,
2013-03-20 22:23:00,41.3,22.6,29.86,ENE,60,3.0,5.0,47,0.00,,,0.00,Wunderground v.1.15,2013-03-21 02:23:00,
2013-03-20 22:29:00,41.1,22.4,29.86,WNW,302,2.0,7.0,47,0.00,,,0.00,Wunderground v.1.15,2013-03-21 02:29:00,
2013-03-20 22:34:00,41.0,22.8,29.87,North,355,2.0,2.0,48,0.00,,,0.00,Wunderground v.1.15,2013-03-21 02:34:00,
2013-03-20 22:39:00,40.8,23.1,29.87,NW,309,1.0,8.0,49,0.00,,,0.00,Wunderground v.1.15,2013-03-21 02:39:00,
2013-03-20 22:45:00,40.7,23.5,29.87,ESE,119,2.0,4.0,50,0.00,,,0.00,Wunderground v.1.15,2013-03-21 02:45:00,
2013-03-20 22:51:00,40.3,23.6,29.87,North,9,3.0,5.0,51,0.00,,,0.00,Wunderground v.1.15,2013-03-21 02:51:00,
2013-03-20 22:56:00,40.2,24.0,29.87,NE,47,3.0,6.0,52,0.00,,,0.00,Wunderground v.1.15,2013-03-21 02:56:00,
2013-03-20 23:01:00,40.0,24.2,29.87,WSW,252,2.0,3.0,53,0.00,,,0.00,Wunderground v.1.15,2013-03-21 03:01:00,
2013-03-20 23:07:00,39.7,25.3,29.87,North,355,2.0,7.0,56,0.00,,,0.00,Wunderground v.1.15,2013-03-21 03:07:00,
2013-03-20 23:12:00,39.2,25.6,29.87,SW,219,2.0,4.0,58,0.00,,,0.00,Wunderground v.1.15,2013-03-21 03:12:00,
2013-03-20 23:17:00,38.6,27.1,29.88,NW,313,2.0,5.0,63,0.00,,,0.00,Wunderground v.1.15,2013-03-21 03:17:00,
2013-03-20 23:22:00,38.1,27.7,29.88,NW,309,3.0,6.0,66,0.00,,,0.00,Wunderground v.1.15,2013-03-21 03:22:00,
2013-03-20 23:27:00,37.7,28.1,29.89,NW,307,3.0,7.0,68,0.00,,,0.00,Wunderground v.1.15,2013-03-21 03:27:00,
2013-03-20 23:32:00,37.3,28.8,29.88,West,273,2.0,4.0,71,0.00,,,0.00,Wunderground v.1.15,2013-03-21 03:32:00,
2013-03-20 23:38:00,36.9,28.7,29.89,SW,214,2.0,4.0,72,0.00,,,0.00,Wunderground v.1.15,2013-03-21 03:38:00,
2013-03-20 23:43:00,36.5,29.3,29.89,West,268,2.0,4.0,75,0.00,,,0.00,Wunderground v.1.15,2013-03-21 03:43:00,
2013-03-20 23:51:00,36.1,29.3,29.89,NE,49,1.0,1.0,76,0.00,,,0.00,Wunderground v.1.15,2013-03-21 03:51:00,
2013-03-20 23:56:00,35.7,29.2,29.89,SW,216,2.0,6.0,77,0.00,,,0.00,Wunderground v.1.15,2013-03-21 03:56:00,